Archival Weather

Sydney Intl

Sydney, Australia (YSSY)

Report from: Friday, September 22, 2023 10:00 PM AEST
Current time: Sunday, February 25, 2024 3:00 AM AEDT

Current weather – Weather history – Daily summaries
Weather forecast

Present weatherCLOSED
Temperature15.0°C (59.0°F)
Dew point9.0°C (48.2°F)
Winds 8 kts (4.1 m/s, 9.2 mph) South-Southeast (150°)
Visibility6.2 mi. (10 km)
Clouds Few clouds 2,700 ft. (823 m)
Altimeter30.42 in.Hg (1030 mB)
Relative humidity67 %
Density altitude-399 ft. (-122 m)
Flight conditions Visual Meteorological Conditions
Raw dataYSSY 221200Z 15008KT 9999 FEW027 15/09 Q1030 STATION CLOSED UNTIL 20Z
An error has occurred. This application may no longer respond until reloaded. Reload 🗙